createdAt,value
2023-03-01T00:00:47.578Z,96703.00
2023-03-01T00:03:20.246Z,96705.84
2023-03-01T00:05:52.916Z,96697.66
2023-03-01T00:08:25.588Z,96697.66
2023-03-01T00:11:08.315Z,96692.88
2023-03-01T00:13:41.203Z,96694.47
2023-03-01T00:16:15.656Z,96699.47
2023-03-01T00:18:48.353Z,96696.56
2023-03-01T00:21:22.130Z,96693.38
2023-03-01T00:23:55.618Z,96688.88
2023-03-01T00:26:30.060Z,96692.03
2023-03-01T00:29:02.983Z,96683.03
2023-03-01T00:31:35.855Z,96677.44
2023-03-01T00:34:09.011Z,96684.31
2023-03-01T00:36:41.743Z,96677.97
2023-03-01T00:39:16.135Z,96681.94
2023-03-01T00:41:50.714Z,96677.69
2023-03-01T00:44:23.501Z,96675.31
2023-03-01T00:46:56.237Z,96679.50
2023-03-01T00:49:29.636Z,96673.94
2023-03-01T00:52:02.362Z,96667.31
2023-03-01T00:54:35.071Z,96668.09
2023-03-01T00:57:09.057Z,96674.19
2023-03-01T00:59:41.725Z,96668.63
2023-03-01T01:02:14.274Z,96659.91
2023-03-01T01:04:46.998Z,96651.97
2023-03-01T01:07:21.089Z,96651.69
2023-03-01T01:09:53.804Z,96652.19
2023-03-01T01:12:27.855Z,96645.31
2023-03-01T01:15:00.835Z,96650.59
2023-03-01T01:17:33.941Z,96653.75
2023-03-01T01:20:07.197Z,96652.97
2023-03-01T01:22:39.828Z,96652.19
2023-03-01T01:25:12.730Z,96647.97
2023-03-01T01:27:46.764Z,96640.03
2023-03-01T01:30:19.583Z,96633.66
2023-03-01T01:32:52.235Z,96630.22
2023-03-01T01:35:24.932Z,96630.75
2023-03-01T01:37:57.651Z,96628.09
2023-03-01T01:40:30.378Z,96624.66
2023-03-01T01:43:04.408Z,96627.56
2023-03-01T01:45:37.593Z,96630.72
2023-03-01T01:48:14.666Z,96626.19
2023-03-01T01:50:48.787Z,96616.41
2023-03-01T01:53:22.142Z,96608.44
2023-03-01T01:55:58.155Z,96615.06
2023-03-01T01:58:32.683Z,96619.28
2023-03-01T02:01:06.051Z,96610.56
2023-03-01T02:03:43.329Z,96608.44
2023-03-01T02:06:20.221Z,96605.78
2023-03-01T02:08:54.128Z,96603.66
2023-03-01T02:11:27.826Z,96595.72
2023-03-01T02:14:02.314Z,96597.78
2023-03-01T02:16:35.567Z,96589.03
2023-03-01T02:19:09.610Z,96599.34
2023-03-01T02:21:46.377Z,96595.91
2023-03-01T02:24:24.908Z,96579.25
2023-03-01T02:26:59.989Z,96577.13
2023-03-01T02:29:34.182Z,96583.19
2023-03-01T02:32:07.204Z,96576.84
2023-03-01T02:34:40.720Z,96579.50
2023-03-01T02:37:16.030Z,96564.41
2023-03-01T02:39:50.302Z,96564.13
2023-03-01T02:42:27.269Z,96569.69
2023-03-01T02:45:01.661Z,96571.28
2023-03-01T02:47:34.854Z,96563.34
2023-03-01T02:50:13.246Z,96568.34
2023-03-01T02:52:47.981Z,96561.19
2023-03-01T02:55:20.685Z,96568.84
2023-03-01T02:57:53.674Z,96558.25
2023-03-01T03:00:30.653Z,96556.41
2023-03-01T03:03:03.558Z,96558.50
2023-03-01T03:05:37.246Z,96558.50
2023-03-01T03:08:10.291Z,96547.13
2023-03-01T03:10:43.954Z,96542.34
2023-03-01T03:13:18.219Z,96552.66
2023-03-01T03:15:52.319Z,96545.47
2023-03-01T03:18:26.942Z,96534.88
2023-03-01T03:20:59.952Z,96536.44
2023-03-01T03:23:32.625Z,96544.13
2023-03-01T03:26:05.913Z,96540.91
2023-03-01T03:28:40.965Z,96537.47
2023-03-01T03:31:15.160Z,96544.63
2023-03-01T03:33:47.940Z,96537.47
2023-03-01T03:36:21.518Z,96542.50
2023-03-01T03:38:54.258Z,96554.66
2023-03-01T03:41:28.179Z,96550.94
2023-03-01T03:44:01.590Z,96548.00
2023-03-01T03:46:36.532Z,96541.13
2023-03-01T03:49:09.415Z,96542.72
2023-03-01T03:51:42.113Z,96540.84
2023-03-01T03:54:14.809Z,96541.63
2023-03-01T03:56:47.486Z,96537.13
2023-03-01T03:59:20.160Z,96542.94
2023-03-01T04:01:54.219Z,96533.13
2023-03-01T04:04:26.969Z,96535.78
2023-03-01T04:06:59.613Z,96538.44
2023-03-01T04:09:32.342Z,96535.00
2023-03-01T04:12:04.989Z,96534.72
2023-03-01T04:14:37.695Z,96529.16
2023-03-01T04:17:11.781Z,96529.16
2023-03-01T04:19:45.062Z,96520.09
2023-03-01T04:22:19.390Z,96526.19
2023-03-01T04:24:52.144Z,96527.50
2023-03-01T04:27:24.825Z,96521.13
2023-03-01T04:29:57.617Z,96520.84
2023-03-01T04:32:32.741Z,96518.47
2023-03-01T04:35:05.746Z,96521.91
2023-03-01T04:37:38.438Z,96519.00
2023-03-01T04:40:17.267Z,96518.19
2023-03-01T04:42:50.008Z,96518.72
2023-03-01T04:45:22.859Z,96516.06
2023-03-01T04:47:59.238Z,96516.81
2023-03-01T04:50:32.000Z,96510.47
2023-03-01T04:53:04.710Z,96517.34
2023-03-01T04:55:37.400Z,96505.66
2023-03-01T04:58:10.156Z,96506.97
2023-03-01T05:00:42.817Z,96504.03
2023-03-01T05:03:19.125Z,96505.63
2023-03-01T05:05:53.281Z,96507.47
2023-03-01T05:08:25.974Z,96509.25
2023-03-01T05:10:58.648Z,96506.63
2023-03-01T05:13:31.470Z,96507.91
2023-03-01T05:16:05.184Z,96504.19
2023-03-01T05:18:39.538Z,96503.88
2023-03-01T05:21:13.115Z,96505.47
2023-03-01T05:23:45.918Z,96498.31
2023-03-01T05:26:28.173Z,96492.72
2023-03-01T05:29:02.036Z,96495.59
2023-03-01T05:31:34.821Z,96491.09
2023-03-01T05:34:08.925Z,96495.31
2023-03-01T05:36:41.619Z,96493.75
2023-03-01T05:39:14.284Z,96492.66
2023-03-01T05:41:46.955Z,96496.41
2023-03-01T05:44:19.674Z,96491.88
2023-03-01T05:46:52.526Z,96479.19
2023-03-01T05:49:26.988Z,96481.06
2023-03-01T05:51:59.660Z,96474.69
2023-03-01T05:54:32.431Z,96467.81
2023-03-01T05:57:05.091Z,96459.06
2023-03-01T05:59:37.853Z,96460.66
2023-03-01T06:02:10.547Z,96465.94
2023-03-01T06:04:44.806Z,96464.88
2023-03-01T06:07:17.653Z,96462.75
2023-03-01T06:09:50.312Z,96461.16
2023-03-01T06:12:22.994Z,96460.09
2023-03-01T06:14:55.657Z,96462.75
2023-03-01T06:17:28.524Z,96456.66
2023-03-01T06:20:02.694Z,96462.22
2023-03-01T06:22:35.429Z,96460.38
2023-03-01T06:25:08.890Z,96453.78
2023-03-01T06:27:41.952Z,96456.72
2023-03-01T06:30:16.140Z,96455.91
2023-03-01T06:32:49.581Z,96462.59
2023-03-01T06:35:23.747Z,96458.09
2023-03-01T06:37:56.417Z,96471.63
2023-03-01T06:40:29.176Z,96467.66
2023-03-01T06:43:01.946Z,96467.66
2023-03-01T06:45:34.608Z,96462.66
2023-03-01T06:48:08.368Z,96467.94
2023-03-01T06:50:42.555Z,96463.44
2023-03-01T06:53:15.278Z,96466.09
2023-03-01T06:55:47.925Z,96465.81
2023-03-01T06:58:20.612Z,96464.75
2023-03-01T07:00:53.290Z,96463.66
2023-03-01T07:03:26.160Z,96464.16
2023-03-01T07:06:00.239Z,96468.09
2023-03-01T07:08:32.883Z,96468.09
2023-03-01T07:11:06.779Z,96472.31
2023-03-01T07:13:39.485Z,96472.03
2023-03-01T07:16:12.188Z,96469.13
2023-03-01T07:18:44.879Z,96469.91
2023-03-01T07:21:19.030Z,96462.22
2023-03-01T07:23:51.730Z,96460.88
2023-03-01T07:26:26.183Z,96465.38
2023-03-01T07:29:00.921Z,96461.63
2023-03-01T07:31:33.865Z,96455.88
2023-03-01T07:34:06.526Z,96457.13
2023-03-01T07:36:44.120Z,96464.28
2023-03-01T07:39:18.611Z,96461.94
2023-03-01T07:41:52.550Z,96455.34
2023-03-01T07:44:25.326Z,96456.44
2023-03-01T07:46:59.276Z,96465.44
2023-03-01T07:49:34.316Z,96461.22
2023-03-01T07:52:08.495Z,96461.22
2023-03-01T07:54:41.643Z,96450.63
2023-03-01T07:57:14.542Z,96449.84
2023-03-01T07:59:47.707Z,96452.19
2023-03-01T08:02:20.574Z,96456.44
2023-03-01T08:04:53.290Z,96453.00
2023-03-01T08:07:27.435Z,96454.28
2023-03-01T08:10:00.104Z,96452.94
2023-03-01T08:12:33.192Z,96448.91
2023-03-01T08:15:06.288Z,96447.53
2023-03-01T08:17:39.004Z,96448.56
2023-03-01T08:20:13.720Z,96449.06
2023-03-01T08:22:47.985Z,96442.13
2023-03-01T08:25:20.646Z,96445.75
2023-03-01T08:27:53.418Z,96441.47
2023-03-01T08:30:26.060Z,96436.97
2023-03-01T08:32:58.795Z,96437.16
2023-03-01T08:35:31.547Z,96437.66
2023-03-01T08:38:05.601Z,96428.63
2023-03-01T08:40:38.277Z,96424.34
2023-03-01T08:43:10.977Z,96429.81
2023-03-01T08:45:43.664Z,96430.34
2023-03-01T08:48:16.384Z,96432.41
2023-03-01T08:50:49.128Z,96432.59
2023-03-01T08:53:23.431Z,96430.44
2023-03-01T08:55:56.102Z,96421.13
2023-03-01T08:58:28.773Z,96427.97
2023-03-01T09:01:01.501Z,96431.63
2023-03-01T09:03:34.187Z,96434.50
2023-03-01T09:06:08.475Z,96432.84
2023-03-01T09:08:43.491Z,96424.59
2023-03-01T09:11:17.747Z,96427.25
2023-03-01T09:13:50.924Z,96420.56
2023-03-01T09:16:24.159Z,96416.06
2023-03-01T09:18:57.212Z,96419.19
2023-03-01T09:21:40.163Z,96405.91
2023-03-01T09:24:16.039Z,96405.91
2023-03-01T09:26:50.785Z,96407.50
2023-03-01T09:29:24.794Z,96409.69
2023-03-01T09:31:57.495Z,96407.50
2023-03-01T09:34:30.562Z,96407.22
2023-03-01T09:37:03.539Z,96404.28
2023-03-01T09:39:37.969Z,96404.78
2023-03-01T09:42:13.384Z,96418.22
2023-03-01T09:44:48.341Z,96415.78
2023-03-01T09:47:22.341Z,96418.44
2023-03-01T09:49:59.743Z,96424.03
2023-03-01T09:52:35.912Z,96405.75
2023-03-01T09:55:13.441Z,96401.50
2023-03-01T09:57:49.889Z,96402.59
2023-03-01T10:00:27.224Z,96397.00
2023-03-01T10:03:01.709Z,96395.91
2023-03-01T10:05:38.997Z,96399.56
2023-03-01T10:08:27.182Z,96393.97
2023-03-01T10:11:01.667Z,96394.16
2023-03-01T10:13:39.560Z,96400.25
2023-03-01T10:16:15.330Z,96402.03
2023-03-01T10:18:51.113Z,96395.63
2023-03-01T10:21:24.275Z,96388.94
2023-03-01T10:23:59.332Z,96393.69
2023-03-01T10:26:44.309Z,96385.09
2023-03-01T10:29:17.020Z,96377.06
2023-03-01T10:31:50.712Z,96386.59
2023-03-01T10:34:29.065Z,96377.22
2023-03-01T10:37:03.747Z,96376.06
2023-03-01T10:39:36.475Z,96374.78
2023-03-01T10:42:22.225Z,96369.97
2023-03-01T10:44:54.840Z,96375.28
2023-03-01T10:47:28.611Z,96366.25
2023-03-01T10:50:02.632Z,96366.53
2023-03-01T10:52:36.695Z,96375.28
2023-03-01T10:55:25.413Z,96373.13
2023-03-01T10:58:20.175Z,96371.22
2023-03-01T11:00:53.949Z,96376.25
2023-03-01T11:03:27.596Z,96368.28
2023-03-01T11:06:01.671Z,96371.44
2023-03-01T11:08:36.883Z,96377.25
2023-03-01T11:11:19.278Z,96385.69
2023-03-01T11:13:55.223Z,96365.84
2023-03-01T11:16:30.093Z,96370.34
2023-03-01T11:19:18.232Z,96366.91
2023-03-01T11:21:57.556Z,96366.91
2023-03-01T11:24:37.221Z,96368.00
2023-03-01T11:27:17.664Z,96366.41
2023-03-01T11:29:55.005Z,96359.25
2023-03-01T11:32:30.413Z,96360.03
2023-03-01T11:35:05.198Z,96357.88
2023-03-01T11:37:40.082Z,96352.72
2023-03-01T11:40:14.705Z,96351.66
2023-03-01T11:43:02.400Z,96355.28
2023-03-01T11:45:42.693Z,96344.38
2023-03-01T11:48:49.532Z,96349.97
2023-03-01T11:51:27.230Z,96355.88
2023-03-01T11:54:06.016Z,96348.53
2023-03-01T11:56:41.124Z,96353.44
2023-03-01T11:59:31.001Z,96343.44
2023-03-01T12:02:22.071Z,96348.81
2023-03-01T12:05:27.733Z,96339.13
2023-03-01T12:08:03.195Z,96333.44
2023-03-01T12:10:39.330Z,96330.28
2023-03-01T12:13:44.645Z,96322.91
2023-03-01T12:16:38.434Z,96321.31
2023-03-01T12:19:34.945Z,96316.03
2023-03-01T12:22:15.144Z,96304.63
2023-03-01T12:25:04.631Z,96310.72
2023-03-01T12:27:52.458Z,96311.22
2023-03-01T12:30:30.492Z,96305.13
2023-03-01T12:33:12.904Z,96300.09
2023-03-01T12:35:56.439Z,96300.09
2023-03-01T12:38:36.305Z,96296.66
2023-03-01T12:41:23.801Z,96296.38
2023-03-01T12:44:06.997Z,96282.03
2023-03-01T12:46:53.713Z,96291.56
2023-03-01T12:49:29.026Z,96289.19
2023-03-01T12:52:06.340Z,96285.75
2023-03-01T12:54:39.302Z,96291.06
2023-03-01T12:57:17.103Z,96298.22
2023-03-01T12:59:55.790Z,96296.66
2023-03-01T13:02:33.206Z,96296.38
2023-03-01T13:05:19.232Z,96288.59
2023-03-01T13:07:57.290Z,96294.09
2023-03-01T13:10:33.700Z,96290.34
2023-03-01T13:13:14.895Z,96285.84
2023-03-01T13:15:48.804Z,96286.03
2023-03-01T13:18:34.498Z,96294.00
2023-03-01T13:21:07.217Z,96281.50
2023-03-01T13:23:42.614Z,96289.97
2023-03-01T13:26:16.612Z,96288.88
2023-03-01T13:28:53.926Z,96282.78
2023-03-01T13:31:44.192Z,96277.66
2023-03-01T13:34:31.768Z,96279.22
2023-03-01T13:37:10.839Z,96285.81
2023-03-01T13:39:44.961Z,96290.06
2023-03-01T13:42:35.389Z,96293.97
2023-03-01T13:45:17.730Z,96296.16
2023-03-01T13:47:52.519Z,96306.75
2023-03-01T13:50:26.671Z,96298.47
2023-03-01T13:53:01.527Z,96299.88
2023-03-01T13:55:38.928Z,96305.19
2023-03-01T13:58:20.846Z,96300.97
2023-03-01T14:01:00.674Z,96304.69
2023-03-01T14:03:34.424Z,96308.44
2023-03-01T14:06:15.190Z,96312.16
2023-03-01T14:08:49.775Z,96311.56
2023-03-01T14:11:40.330Z,96306.56
2023-03-01T14:14:21.969Z,96300.16
2023-03-01T14:17:00.166Z,96310.19
2023-03-01T14:19:34.417Z,96308.00
2023-03-01T14:22:15.479Z,96302.69
2023-03-01T14:24:50.189Z,96312.25
2023-03-01T14:27:22.871Z,96300.25
2023-03-01T14:30:00.738Z,96297.88
2023-03-01T14:32:33.785Z,96298.38
2023-03-01T14:35:21.590Z,96285.41
2023-03-01T14:37:54.332Z,96282.25
2023-03-01T14:40:29.496Z,96292.38
2023-03-01T14:43:04.032Z,96285.31
2023-03-01T14:45:38.271Z,96287.19
2023-03-01T14:48:11.075Z,96288.09
2023-03-01T14:50:44.478Z,96287.91
2023-03-01T14:53:19.604Z,96277.09
2023-03-01T14:55:53.898Z,96284.88
2023-03-01T14:58:27.410Z,96280.16
2023-03-01T15:01:02.629Z,96279.38
2023-03-01T15:03:38.063Z,96283.88
2023-03-01T15:06:11.454Z,96281.53
2023-03-01T15:08:46.806Z,96274.06
2023-03-01T15:11:23.801Z,96281.72
2023-03-01T15:13:56.629Z,96279.06
2023-03-01T15:16:32.808Z,96271.59
2023-03-01T15:19:06.959Z,96283.00
2023-03-01T15:21:40.572Z,96281.44
2023-03-01T15:24:21.419Z,96283.31
2023-03-01T15:26:58.645Z,96285.97
2023-03-01T15:29:34.310Z,96279.56
2023-03-01T15:32:24.938Z,96277.22
2023-03-01T15:34:57.854Z,96281.44
2023-03-01T15:37:48.640Z,96278.78
2023-03-01T15:40:24.913Z,96282.22
2023-03-01T15:42:57.590Z,96282.22
2023-03-01T15:45:31.194Z,96278.78
2023-03-01T15:48:06.743Z,96283.00
2023-03-01T15:50:41.104Z,96284.59
2023-03-01T15:53:15.390Z,96282.09
2023-03-01T15:55:50.600Z,96269.63
2023-03-01T15:58:24.263Z,96272.78
2023-03-01T16:01:01.289Z,96268.25
2023-03-01T16:03:35.908Z,96267.47
2023-03-01T16:06:10.672Z,96270.59
2023-03-01T16:08:43.874Z,96273.25
2023-03-01T16:11:18.433Z,96267.16
2023-03-01T16:13:51.894Z,96271.06
2023-03-01T16:16:24.622Z,96271.69
2023-03-01T16:18:58.885Z,96274.84
2023-03-01T16:21:32.067Z,96275.91
2023-03-01T16:24:05.191Z,96269.03
2023-03-01T16:26:38.487Z,96269.31
2023-03-01T16:29:11.215Z,96262.94
2023-03-01T16:31:43.956Z,96268.53
2023-03-01T16:34:18.471Z,96270.41
2023-03-01T16:36:51.178Z,96272.78
2023-03-01T16:39:23.850Z,96267.94
2023-03-01T16:41:56.558Z,96260.00
2023-03-01T16:44:29.208Z,96265.47
2023-03-01T16:47:01.911Z,96272.66
2023-03-01T16:49:35.958Z,96273.44
2023-03-01T16:52:08.611Z,96275.00
2023-03-01T16:54:41.637Z,96275.00
2023-03-01T16:57:14.404Z,96277.66
2023-03-01T16:59:47.116Z,96274.50
2023-03-01T17:02:20.836Z,96278.75
2023-03-01T17:04:55.541Z,96276.38
2023-03-01T17:07:28.434Z,96284.97
2023-03-01T17:10:01.142Z,96287.91
2023-03-01T17:12:34.941Z,96288.97
2023-03-01T17:15:08.347Z,96293.50
2023-03-01T17:17:41.041Z,96299.88
2023-03-01T17:20:15.221Z,96297.25
2023-03-01T17:22:47.973Z,96296.44
2023-03-01T17:25:20.934Z,96302.84
2023-03-01T17:27:53.968Z,96312.38
2023-03-01T17:30:26.722Z,96312.38
2023-03-01T17:32:59.573Z,96318.47
2023-03-01T17:35:37.091Z,96316.09
2023-03-01T17:38:09.774Z,96310.00
2023-03-01T17:40:42.986Z,96307.69
2023-03-01T17:43:16.346Z,96316.09
2023-03-01T17:45:50.797Z,96309.53
2023-03-01T17:48:23.586Z,96306.91
2023-03-01T17:50:57.666Z,96310.34
2023-03-01T17:53:30.482Z,96320.94
2023-03-01T17:56:03.720Z,96325.47
2023-03-01T17:58:37.111Z,96311.41
2023-03-01T18:01:14.007Z,96313.28
2023-03-01T18:03:47.721Z,96314.84
2023-03-01T18:06:23.953Z,96317.50
2023-03-01T18:08:57.103Z,96315.63
2023-03-01T18:11:30.125Z,96309.53
2023-03-01T18:14:02.978Z,96305.03
2023-03-01T18:16:35.967Z,96314.84
2023-03-01T18:19:08.745Z,96314.34
2023-03-01T18:21:44.026Z,96319.09
2023-03-01T18:24:16.848Z,96312.50
2023-03-01T18:26:49.474Z,96315.63
2023-03-01T18:29:22.150Z,96311.41
2023-03-01T18:31:57.092Z,96317.50
2023-03-01T18:34:29.932Z,96313.00
2023-03-01T18:37:09.670Z,96315.31
2023-03-01T18:39:42.741Z,96308.94
2023-03-01T18:42:16.449Z,96310.50
2023-03-01T18:44:49.303Z,96309.72
2023-03-01T18:47:21.984Z,96310.72
2023-03-01T18:49:54.671Z,96303.81
2023-03-01T18:52:28.726Z,96295.06
2023-03-01T18:55:01.434Z,96311.50
2023-03-01T18:57:34.081Z,96296.34
2023-03-01T19:00:07.456Z,96294.50
2023-03-01T19:02:40.394Z,96296.34
2023-03-01T19:05:13.189Z,96295.28
2023-03-01T19:07:47.254Z,96282.78
2023-03-01T19:10:20.028Z,96282.19
2023-03-01T19:12:52.817Z,96278.75
2023-03-01T19:15:25.469Z,96272.66
2023-03-01T19:17:59.021Z,96276.88
2023-03-01T19:20:31.800Z,96272.06
2023-03-01T19:23:05.925Z,96267.53
2023-03-01T19:25:38.962Z,96266.47
2023-03-01T19:28:11.613Z,96263.81
2023-03-01T19:30:44.346Z,96248.94
2023-03-01T19:33:17.021Z,96250.53
2023-03-01T19:35:51.477Z,96254.75
2023-03-01T19:38:25.679Z,96238.03
2023-03-01T19:40:58.599Z,96239.91
2023-03-01T19:43:31.321Z,96243.66
2023-03-01T19:46:04.380Z,96250.03
2023-03-01T19:48:37.043Z,96242.06
2023-03-01T19:51:10.264Z,96243.75
2023-03-01T19:53:44.328Z,96238.75
2023-03-01T19:56:17.344Z,96234.81
2023-03-01T19:58:50.517Z,96238.84
2023-03-01T20:01:24.211Z,96232.31
2023-03-01T20:03:57.287Z,96237.59
2023-03-01T20:06:30.723Z,96238.19
2023-03-01T20:09:19.032Z,96230.03
2023-03-01T20:11:53.280Z,96234.56
2023-03-01T20:14:26.386Z,96232.50
2023-03-01T20:16:59.027Z,96225.34
2023-03-01T20:19:31.726Z,96231.72
2023-03-01T20:22:04.850Z,96234.38
2023-03-01T20:24:38.933Z,96226.41
2023-03-01T20:27:11.909Z,96225.63
2023-03-01T20:29:45.960Z,96212.66
2023-03-01T20:32:18.816Z,96221.91
2023-03-01T20:34:52.069Z,96214.72
2023-03-01T20:37:24.951Z,96218.16
2023-03-01T20:39:59.098Z,96218.16
2023-03-01T20:42:31.799Z,96216.31
2023-03-01T20:45:04.742Z,96208.03
2023-03-01T20:47:37.422Z,96218.34
2023-03-01T20:50:10.767Z,96217.25
2023-03-01T20:52:47.820Z,96217.25
2023-03-01T20:55:22.093Z,96216.47
2023-03-01T20:57:54.918Z,96204.28
2023-03-01T21:00:27.648Z,96199.47
2023-03-01T21:03:00.445Z,96197.09
2023-03-01T21:05:33.102Z,96198.38
2023-03-01T21:08:06.010Z,96196.81
2023-03-01T21:10:40.321Z,96193.38
2023-03-01T21:13:12.974Z,96191.81
2023-03-01T21:15:52.988Z,96189.94
2023-03-01T21:18:30.170Z,96192.09
2023-03-01T21:21:04.324Z,96192.09
2023-03-01T21:23:38.214Z,96188.38
2023-03-01T21:26:13.268Z,96191.81
2023-03-01T21:28:45.989Z,96192.59
2023-03-01T21:31:19.617Z,96189.94
2023-03-01T21:33:54.576Z,96187.00
2023-03-01T21:36:28.756Z,96180.91
2023-03-01T21:39:02.592Z,96183.25
2023-03-01T21:41:37.820Z,96187.19
2023-03-01T21:44:10.497Z,96177.03
2023-03-01T21:46:43.442Z,96173.28
2023-03-01T21:49:16.276Z,96172.22
2023-03-01T21:51:49.285Z,96161.59
2023-03-01T21:54:22.483Z,96172.72
2023-03-01T21:56:56.519Z,96164.75
2023-03-01T21:59:29.361Z,96159.44
2023-03-01T22:02:02.045Z,96156.78
2023-03-01T22:04:34.816Z,96151.78
2023-03-01T22:07:08.025Z,96141.16
2023-03-01T22:09:40.873Z,96143.03
2023-03-01T22:12:14.900Z,96139.59
2023-03-01T22:14:47.696Z,96143.03
2023-03-01T22:17:20.354Z,96135.34
2023-03-01T22:19:53.040Z,96128.47
2023-03-01T22:22:25.732Z,96137.53
2023-03-01T22:24:58.468Z,96136.78
2023-03-01T22:27:32.569Z,96144.25
2023-03-01T22:30:06.229Z,96141.09
2023-03-01T22:32:38.958Z,96130.00
2023-03-01T22:35:12.083Z,96132.66
2023-03-01T22:37:44.789Z,96129.22
2023-03-01T22:40:17.541Z,96137.47
2023-03-01T22:42:51.853Z,96125.31
2023-03-01T22:45:24.572Z,96127.97
2023-03-01T22:47:57.298Z,96134.81
2023-03-01T22:50:30.105Z,96125.31
2023-03-01T22:53:02.910Z,96120.47
2023-03-01T22:55:35.681Z,96116.72
2023-03-01T22:58:09.811Z,96123.59
2023-03-01T23:00:42.583Z,96121.72
2023-03-01T23:03:17.381Z,96120.34
2023-03-01T23:05:50.111Z,96124.59
2023-03-01T23:08:22.812Z,96126.63
2023-03-01T23:10:55.512Z,96130.53
2023-03-01T23:13:29.531Z,96126.03
2023-03-01T23:16:02.367Z,96128.09
2023-03-01T23:18:35.257Z,96120.13
2023-03-01T23:21:12.652Z,96119.50
2023-03-01T23:23:46.688Z,96116.06
2023-03-01T23:26:22.367Z,96108.88
2023-03-01T23:28:57.492Z,96106.72
2023-03-01T23:31:30.298Z,96111.22
2023-03-01T23:34:03.067Z,96110.44
2023-03-01T23:36:36.329Z,96113.28
2023-03-01T23:39:08.983Z,96107.19
2023-03-01T23:41:41.674Z,96107.50
2023-03-01T23:44:17.838Z,96106.91
2023-03-01T23:46:51.173Z,96101.88
2023-03-01T23:49:24.845Z,96101.59
2023-03-01T23:51:57.529Z,96097.06
2023-03-01T23:54:30.265Z,96085.66
2023-03-01T23:57:03.135Z,96085.34
2023-03-01T23:59:37.168Z,96099.41
